Time;durP1;ratioP1;P1;durP2;ratioP2;P2;SDS_P1;SDS_P2;PMS_P1;PMS_P2;Temp;Humidity;BMP_temperature;BMP_pressure;BME280_temperature;BME280_humidity;BME280_pressure;Samples;Min_cycle;Max_cycle;Signal;HPM_P1;HPM_P2
2023/01/20 00:00:08;;;;;;;28.77;9.75;;;1.70;99.90;;;;;;5032440;28;20377;-73
2023/01/20 00:02:38;;;;;;;9.18;5.25;;;1.70;99.90;;;;;;5032234;28;20080;-72
2023/01/20 00:05:04;;;;;;;2.20;1.85;;;1.70;99.90;;;;;;5032347;28;20080;-73
2023/01/20 00:07:30;;;;;;;10.43;5.22;;;1.60;99.90;;;;;;5016466;28;20550;-73
2023/01/20 00:09:56;;;;;;;15.15;6.97;;;1.60;99.90;;;;;;5031782;28;20022;-73
2023/01/20 00:12:22;;;;;;;9.18;4.65;;;1.60;99.90;;;;;;5032599;28;20471;-75
2023/01/20 00:14:47;;;;;;;39.60;14.70;;;1.50;99.90;;;;;;5032140;28;20263;-75
2023/01/20 00:17:13;;;;;;;0.63;0.63;;;1.50;99.90;;;;;;5032262;28;20017;-75
2023/01/20 00:19:39;;;;;;;18.48;8.40;;;1.80;99.90;;;;;;5030860;28;20025;-75
2023/01/20 00:22:04;;;;;;;10.60;6.35;;;1.60;99.90;;;;;;5028090;28;20038;-76
2023/01/20 00:24:30;;;;;;;14.80;4.63;;;1.60;99.90;;;;;;5031907;28;20033;-76
2023/01/20 00:26:56;;;;;;;19.00;6.88;;;1.70;99.90;;;;;;5032045;28;20041;-75
2023/01/20 00:29:22;;;;;;;20.40;6.15;;;1.70;99.90;;;;;;5030989;28;20047;-76
2023/01/20 00:31:48;;;;;;;3.58;2.92;;;1.60;99.90;;;;;;5032099;28;20040;-73
2023/01/20 00:34:14;;;;;;;8.27;4.15;;;1.60;99.90;;;;;;5032099;28;20061;-73
2023/01/20 00:36:39;;;;;;;12.85;6.57;;;1.60;99.90;;;;;;5032084;28;20066;-72
2023/01/20 00:39:05;;;;;;;36.47;13.85;;;1.60;99.90;;;;;;5031854;28;20377;-73
2023/01/20 00:41:32;;;;;;;16.48;6.75;;;1.60;99.90;;;;;;5031840;28;20049;-73
2023/01/20 00:43:58;;;;;;;13.98;5.28;;;1.60;99.90;;;;;;5033102;28;20022;-73
2023/01/20 00:46:24;;;;;;;3.45;2.88;;;1.70;99.90;;;;;;5040345;22;20049;-70
2023/01/20 00:48:49;;;;;;;10.43;6.97;;;1.60;99.90;;;;;;5011776;28;20030;-74
2023/01/20 00:51:15;;;;;;;15.73;8.23;;;1.60;99.90;;;;;;5012253;28;20028;-71
2023/01/20 00:53:41;;;;;;;18.80;9.02;;;1.60;99.90;;;;;;5005979;28;20037;-73
2023/01/20 00:56:07;;;;;;;18.30;6.97;;;1.60;99.90;;;;;;5015224;28;20036;-73
2023/01/20 00:58:33;;;;;;;19.67;7.97;;;1.50;99.90;;;;;;5016114;28;20026;-74
2023/01/20 01:00:59;;;;;;;9.90;7.38;;;1.60;99.90;;;;;;5013935;28;20399;-73
2023/01/20 01:03:28;;;;;;;14.48;8.27;;;1.50;99.90;;;;;;5015665;28;20040;-74
2023/01/20 01:06:04;;;;;;;5.07;4.53;;;1.40;99.90;;;;;;5014853;28;20038;-73
2023/01/20 01:08:29;;;;;;;10.88;2.60;;;1.50;99.90;;;;;;4997563;28;20026;-74
2023/01/20 01:10:55;;;;;;;10.18;6.68;;;1.50;99.90;;;;;;5015400;28;20030;-74
2023/01/20 01:13:21;;;;;;;3.40;3.10;;;1.50;99.90;;;;;;5015301;28;20025;-74
2023/01/20 01:15:48;;;;;;;50.92;17.73;;;1.70;99.90;;;;;;5015065;28;20041;-72
2023/01/20 01:18:14;;;;;;;30.38;12.20;;;1.50;99.90;;;;;;5015200;28;20030;-74
2023/01/20 01:20:39;;;;;;;44.40;7.60;;;1.50;99.90;;;;;;5014912;28;20022;-74
2023/01/20 01:23:05;;;;;;;19.20;6.28;;;1.50;99.90;;;;;;5014789;28;20030;-73
2023/01/20 01:25:31;;;;;;;35.03;12.55;;;1.50;99.90;;;;;;5014941;28;20030;-73
2023/01/20 01:27:57;;;;;;;26.92;11.60;;;1.50;99.90;;;;;;4997573;28;20541;-72
2023/01/20 01:30:22;;;;;;;3.95;2.63;;;1.50;99.90;;;;;;5014838;28;20041;-73
2023/01/20 01:32:48;;;;;;;0.75;0.75;;;1.40;99.90;;;;;;5014943;28;20101;-73
2023/01/20 01:35:14;;;;;;;14.50;6.53;;;1.40;99.90;;;;;;5014879;28;20052;-74
2023/01/20 01:37:40;;;;;;;4.00;2.40;;;1.60;99.90;;;;;;5014638;28;20022;-73
2023/01/20 01:40:06;;;;;;;18.95;8.90;;;1.40;99.90;;;;;;5014710;28;20028;-73
2023/01/20 01:42:32;;;;;;;33.25;14.10;;;1.40;99.90;;;;;;5014653;28;20046;-72
2023/01/20 01:45:10;;;;;;;40.10;10.45;;;1.40;99.90;;;;;;5014689;28;20088;-74
2023/01/20 01:48:11;;;;;;;33.53;12.55;;;1.40;99.90;;;;;;5014398;28;20037;-73
2023/01/20 01:50:57;;;;;;;14.30;7.57;;;1.40;99.90;;;;;;4935073;29;20024;-74
2023/01/20 01:53:25;;;;;;;41.25;16.65;;;1.40;99.90;;;;;;5009673;28;20045;-73
2023/01/20 01:55:57;;;;;;;22.40;8.43;;;1.30;99.90;;;;;;5012936;28;20387;-73
2023/01/20 01:58:26;;;;;;;8.52;4.90;;;1.40;99.90;;;;;;5014563;28;20112;-73
2023/01/20 02:00:52;;;;;;;4.88;3.05;;;1.50;99.90;;;;;;5014602;28;20038;-72
2023/01/20 02:03:19;;;;;;;31.30;13.18;;;1.50;99.90;;;;;;5014405;28;20394;-72
2023/01/20 02:05:47;;;;;;;46.33;15.25;;;1.50;99.90;;;;;;5013709;28;20029;-70
2023/01/20 02:08:16;;;;;;;32.00;8.60;;;1.40;99.90;;;;;;5014223;28;20022;-74
2023/01/20 02:10:41;;;;;;;13.65;5.18;;;1.30;99.90;;;;;;4994670;28;20021;-73
2023/01/20 02:13:07;;;;;;;17.85;8.38;;;1.30;99.90;;;;;;5013831;28;20554;-73
2023/01/20 02:15:47;;;;;;;18.83;9.48;;;1.40;99.90;;;;;;5013036;28;20053;-74
2023/01/20 02:18:37;;;;;;;11.30;7.22;;;1.30;99.90;;;;;;4996360;28;20040;-73
2023/01/20 02:21:27;;;;;;;13.48;6.97;;;1.30;99.90;;;;;;4980151;28;20157;-73
2023/01/20 02:23:58;;;;;;;10.43;6.05;;;1.30;99.90;;;;;;5010010;28;20022;-73
2023/01/20 02:26:50;;;;;;;30.35;12.48;;;1.30;99.90;;;;;;5014011;28;20037;-73
2023/01/20 02:29:19;;;;;;;;;;;1.30;99.90;;;;;;5014027;28;20021;-73
2023/01/20 02:32:12;;;;;;;32.95;13.60;;;1.20;99.90;;;;;;5014085;28;19905;-74
2023/01/20 02:35:01;;;;;;;33.13;13.23;;;1.10;99.90;;;;;;5000533;28;20121;-74
2023/01/20 02:37:34;;;;;;;10.00;5.57;;;1.30;99.90;;;;;;5013721;28;20060;-74
2023/01/20 02:40:33;;;;;;;28.15;11.18;;;1.20;99.90;;;;;;5013681;28;20026;-73
2023/01/20 02:43:13;;;;;;;31.88;13.45;;;1.20;99.90;;;;;;4995945;28;20398;-73
2023/01/20 02:45:48;;;;;;;40.38;16.02;;;1.10;99.90;;;;;;4994478;28;20397;-72
2023/01/20 02:48:25;;;;;;;62.17;16.95;;;1.20;99.90;;;;;;5012466;28;20057;-73
2023/01/20 02:51:08;;;;;;;25.88;10.98;;;1.10;99.90;;;;;;5013326;28;20033;-73
2023/01/20 02:53:42;;;;;;;6.82;5.40;;;1.20;99.90;;;;;;5000550;28;20029;-74
2023/01/20 02:56:10;;;;;;;21.92;9.77;;;1.20;99.90;;;;;;5013038;28;20034;-73
2023/01/20 02:58:46;;;;;;;22.38;10.98;;;1.20;99.90;;;;;;5013234;28;20057;-73
2023/01/20 03:01:24;;;;;;;37.35;17.60;;;1.10;99.90;;;;;;4985705;28;20034;-72
2023/01/20 03:04:08;;;;;;;19.63;8.32;;;1.00;99.90;;;;;;4980310;28;20057;-74
2023/01/20 03:06:36;;;;;;;20.23;9.05;;;1.10;99.90;;;;;;5012953;28;20297;-74
2023/01/20 03:09:07;;;;;;;13.85;6.38;;;1.10;99.90;;;;;;5013272;28;20386;-74
2023/01/20 03:11:36;;;;;;;39.00;17.40;;;1.10;99.90;;;;;;4995961;28;20030;-73
2023/01/20 03:14:09;;;;;;;57.13;21.00;;;1.10;99.90;;;;;;4995691;28;20026;-73
2023/01/20 03:16:35;;;;;;;14.38;8.05;;;1.00;99.90;;;;;;5013500;28;20084;-73
2023/01/20 03:19:01;;;;;;;6.93;5.03;;;1.00;99.90;;;;;;5012770;28;20038;-74
2023/01/20 03:21:27;;;;;;;17.60;6.75;;;1.10;99.90;;;;;;5012928;28;20368;-74
2023/01/20 03:23:58;;;;;;;26.48;10.07;;;1.20;99.90;;;;;;4995511;28;20068;-74
2023/01/20 03:26:24;;;;;;;1.85;1.52;;;1.30;99.90;;;;;;5013039;28;20391;-73
2023/01/20 03:28:53;;;;;;;10.13;3.92;;;1.20;99.90;;;;;;5012930;28;20370;-74
2023/01/20 03:31:26;;;;;;;14.55;7.55;;;1.20;99.90;;;;;;5013194;28;20431;-73
2023/01/20 03:33:56;;;;;;;35.88;10.23;;;1.20;99.90;;;;;;5012667;28;20041;-73
2023/01/20 03:36:24;;;;;;;16.98;7.50;;;1.20;99.90;;;;;;5012953;28;20022;-73
2023/01/20 03:38:52;;;;;;;13.63;6.22;;;1.40;99.90;;;;;;5012806;28;20022;-74
2023/01/20 03:41:23;;;;;;;29.10;11.40;;;1.20;99.90;;;;;;5012849;28;20041;-73
2023/01/20 03:44:16;;;;;;;25.02;11.18;;;1.10;99.90;;;;;;5012919;28;20045;-73
2023/01/20 03:47:07;;;;;;;39.10;14.85;;;1.20;99.90;;;;;;5012663;28;20177;-73
2023/01/20 03:49:42;;;;;;;23.98;10.25;;;1.10;99.90;;;;;;5012463;28;20041;-73
2023/01/20 03:52:18;;;;;;;2.72;1.45;;;1.10;99.90;;;;;;5013034;28;20037;-66
2023/01/20 03:54:51;;;;;;;1.45;0.80;;;1.20;99.90;;;;;;4999890;28;20121;-69
2023/01/20 03:57:25;;;;;;;11.25;5.63;;;1.20;99.90;;;;;;5012929;28;20042;-73
2023/01/20 03:59:52;;;;;;;6.63;4.40;;;1.30;99.90;;;;;;5012911;28;20068;-72
2023/01/20 04:02:18;;;;;;;37.83;14.18;;;1.20;99.90;;;;;;5012631;28;20125;-73
2023/01/20 04:04:47;;;;;;;4.93;3.55;;;1.10;99.90;;;;;;5012421;28;20486;-73
2023/01/20 04:07:18;;;;;;;16.00;5.75;;;1.20;99.90;;;;;;4995135;28;20038;-74
2023/01/20 04:09:49;;;;;;;14.05;5.25;;;1.30;99.90;;;;;;5012614;28;20066;-74
2023/01/20 04:12:15;;;;;;;10.07;4.95;;;1.30;99.90;;;;;;5012836;28;20034;-74
2023/01/20 04:14:41;;;;;;;4.57;3.63;;;1.30;99.90;;;;;;5012489;28;20360;-74
2023/01/20 04:17:08;;;;;;;15.93;5.95;;;1.40;99.90;;;;;;5012305;28;20038;-74
2023/01/20 04:19:33;;;;;;;6.93;5.90;;;1.30;99.90;;;;;;5014663;28;20631;-73
2023/01/20 04:22:18;;;;;;;27.98;9.40;;;1.30;99.90;;;;;;5015973;28;20116;-74
2023/01/20 04:25:04;;;;;;;12.85;6.05;;;1.30;99.90;;;;;;5016105;28;20127;-74
2023/01/20 04:27:30;;;;;;;6.45;4.18;;;1.20;99.90;;;;;;5016237;28;20038;-72
2023/01/20 04:29:57;;;;;;;7.57;2.63;;;1.30;99.90;;;;;;4998444;28;20025;-73
2023/01/20 04:32:23;;;;;;;21.42;10.18;;;1.30;99.90;;;;;;4998012;28;20018;-73
2023/01/20 04:34:52;;;;;;;23.58;9.73;;;1.20;99.90;;;;;;5016024;28;20383;-74
2023/01/20 04:37:18;;;;;;;7.38;4.60;;;1.30;99.90;;;;;;5015899;28;20394;-74
2023/01/20 04:39:43;;;;;;;19.27;6.28;;;1.30;99.90;;;;;;5015987;28;20358;-73
2023/01/20 04:42:11;;;;;;;7.38;3.75;;;1.30;99.90;;;;;;5015698;28;20044;-73
2023/01/20 04:44:37;;;;;;;8.05;4.65;;;1.30;99.90;;;;;;4998263;28;20033;-67
2023/01/20 04:47:03;;;;;;;15.70;5.55;;;1.20;99.90;;;;;;5015148;28;20041;-73
2023/01/20 04:49:29;;;;;;;8.73;4.25;;;1.20;99.90;;;;;;4998144;28;20057;-73
2023/01/20 04:51:55;;;;;;;0.98;0.95;;;1.20;99.90;;;;;;5015528;28;20124;-73
2023/01/20 04:54:20;;;;;;;14.63;6.03;;;1.40;99.90;;;;;;4998000;28;20053;-72
2023/01/20 04:56:49;;;;;;;26.05;9.48;;;1.30;99.90;;;;;;5015603;28;20129;-73
2023/01/20 04:59:15;;;;;;;25.17;12.05;;;1.40;99.90;;;;;;5015314;28;20057;-73
2023/01/20 05:01:41;;;;;;;23.63;7.80;;;1.30;99.90;;;;;;5015199;28;20038;-73
2023/01/20 05:04:07;;;;;;;22.10;9.73;;;1.30;99.90;;;;;;5015214;28;20041;-73
2023/01/20 05:06:34;;;;;;;28.80;10.02;;;1.40;99.90;;;;;;5015079;28;20038;-73
2023/01/20 05:09:00;;;;;;;7.50;4.25;;;1.40;99.90;;;;;;5015299;28;20026;-73
2023/01/20 05:11:25;;;;;;;14.75;4.53;;;1.50;99.90;;;;;;5015173;28;20021;-73
2023/01/20 05:13:51;;;;;;;8.43;5.65;;;1.40;99.90;;;;;;5015051;28;20022;-73
2023/01/20 05:16:23;;;;;;;5.38;3.72;;;1.40;99.90;;;;;;5026823;23;20416;-67
2023/01/20 05:18:50;;;;;;;16.92;8.35;;;1.40;99.90;;;;;;4995687;28;20034;-67
2023/01/20 05:21:16;;;;;;;12.38;6.55;;;1.40;99.90;;;;;;4995432;28;20037;-67
2023/01/20 05:23:42;;;;;;;15.50;8.48;;;1.40;99.90;;;;;;4995466;28;20036;-67
2023/01/20 05:26:10;;;;;;;25.60;10.57;;;1.40;99.90;;;;;;4995530;28;20037;-68
2023/01/20 05:28:35;;;;;;;5.78;2.70;;;1.50;99.90;;;;;;4994905;28;20022;-67
2023/01/20 05:31:01;;;;;;;9.40;4.68;;;1.40;99.90;;;;;;4995315;28;20038;-67
2023/01/20 05:33:27;;;;;;;14.00;6.45;;;1.40;99.90;;;;;;4995470;28;20026;-67
2023/01/20 05:35:53;;;;;;;9.35;4.05;;;1.40;99.90;;;;;;4995236;28;20019;-67
2023/01/20 05:38:19;;;;;;;9.40;6.05;;;1.40;99.90;;;;;;4995203;28;20081;-67
2023/01/20 05:40:44;;;;;;;13.55;7.50;;;1.50;99.90;;;;;;4995106;28;20030;-68
2023/01/20 05:43:10;;;;;;;20.45;8.07;;;1.60;99.90;;;;;;4994935;28;20477;-67
2023/01/20 05:45:36;;;;;;;10.20;5.35;;;1.50;99.90;;;;;;4993843;28;20506;-67
2023/01/20 05:48:02;;;;;;;8.50;5.32;;;1.50;99.90;;;;;;4982599;28;20042;-67
2023/01/20 05:50:29;;;;;;;8.43;4.18;;;1.50;99.90;;;;;;4977829;28;20042;-67
2023/01/20 05:52:55;;;;;;;7.93;3.75;;;1.50;99.90;;;;;;4977519;28;20459;-67
2023/01/20 05:55:21;;;;;;;6.20;3.92;;;1.50;99.90;;;;;;4977611;28;20073;-67
2023/01/20 05:57:46;;;;;;;3.28;2.92;;;1.50;99.90;;;;;;4994613;28;20054;-67
2023/01/20 06:00:13;;;;;;;23.00;9.93;;;1.60;99.90;;;;;;4994929;28;20023;-67
2023/01/20 06:02:39;;;;;;;21.33;8.85;;;1.60;99.90;;;;;;4994689;28;20034;-67
2023/01/20 06:05:06;;;;;;;5.13;3.47;;;1.60;99.90;;;;;;4994799;28;20479;-67
2023/01/20 06:07:32;;;;;;;28.52;10.27;;;1.60;99.90;;;;;;4994747;28;20034;-68
2023/01/20 06:09:58;;;;;;;19.30;8.77;;;1.50;99.90;;;;;;4994640;28;20018;-67
2023/01/20 06:12:24;;;;;;;16.15;7.30;;;1.50;99.90;;;;;;4994138;28;20027;-67
2023/01/20 06:14:50;;;;;;;25.50;10.38;;;1.40;99.90;;;;;;4994668;28;20026;-67
2023/01/20 06:17:16;;;;;;;36.35;11.57;;;1.40;99.90;;;;;;4994389;28;20046;-67
2023/01/20 06:19:42;;;;;;;17.88;8.57;;;1.50;99.90;;;;;;4994428;28;20073;-67
2023/01/20 06:22:12;;;;;;;4.32;2.55;;;1.50;99.90;;;;;;4994362;28;20089;-67
2023/01/20 06:24:38;;;;;;;9.88;4.45;;;1.50;99.90;;;;;;4994495;28;20034;-67
2023/01/20 06:27:04;;;;;;;21.48;5.47;;;1.60;99.90;;;;;;4994269;28;20097;-67
2023/01/20 06:29:30;;;;;;;17.77;7.72;;;1.50;99.90;;;;;;4994333;28;20066;-67
2023/01/20 06:31:56;;;;;;;17.05;9.93;;;1.40;99.90;;;;;;4994159;28;20026;-67
2023/01/20 06:34:22;;;;;;;7.97;5.47;;;1.50;99.90;;;;;;4994328;28;20022;-67
2023/01/20 06:36:47;;;;;;;26.67;8.75;;;1.60;99.90;;;;;;4994380;28;20030;-66
2023/01/20 06:39:13;;;;;;;16.27;8.07;;;1.60;99.90;;;;;;4993565;28;20459;-67
2023/01/20 06:41:39;;;;;;;8.38;5.72;;;1.60;99.90;;;;;;4993345;28;20034;-67
2023/01/20 06:44:05;;;;;;;18.73;8.27;;;1.60;99.90;;;;;;4976699;28;20030;-67
2023/01/20 06:46:30;;;;;;;12.20;5.90;;;1.70;99.90;;;;;;4993991;28;20051;-67
2023/01/20 06:48:59;;;;;;;19.25;8.68;;;1.70;99.90;;;;;;4993720;28;20030;-67
2023/01/20 06:51:27;;;;;;;3.45;1.48;;;1.60;99.90;;;;;;4994140;28;20411;-67
2023/01/20 06:53:53;;;;;;;0.30;0.30;;;1.70;99.90;;;;;;4993865;28;20026;-67
2023/01/20 06:56:19;;;;;;;2.30;1.75;;;1.70;99.90;;;;;;4993438;28;20022;-68
2023/01/20 06:58:45;;;;;;;0.20;0.20;;;1.80;99.90;;;;;;4993853;28;20053;-67
2023/01/20 07:01:21;;;;;;;0.22;0.22;;;2.00;99.90;;;;;;4976198;28;20026;-67
2023/01/20 07:03:47;;;;;;;1.27;1.20;;;1.90;99.90;;;;;;4993770;28;20026;-67
2023/01/20 07:06:27;;;;;;;5.45;3.92;;;2.00;99.90;;;;;;4993904;28;20073;-67
2023/01/20 07:08:55;;;;;;;2.83;1.10;;;2.00;99.90;;;;;;4976632;28;20026;-68
2023/01/20 07:11:21;;;;;;;2.83;2.25;;;2.00;99.90;;;;;;4993265;28;20102;-68
2023/01/20 07:13:49;;;;;;;30.40;4.65;;;2.00;99.90;;;;;;4993578;28;20026;-69
2023/01/20 07:16:17;;;;;;;1.50;1.40;;;2.00;99.90;;;;;;4975852;28;20042;-71
2023/01/20 07:18:47;;;;;;;6.93;2.63;;;2.10;99.90;;;;;;4993316;28;20027;-68
2023/01/20 07:21:13;;;;;;;2.17;0.80;;;1.90;99.90;;;;;;4984178;28;21727;-70
2023/01/20 07:23:39;;;;;;;3.42;1.45;;;2.10;99.90;;;;;;4993327;28;20022;-71
2023/01/20 07:26:13;;;;;;;3.03;2.67;;;2.10;99.90;;;;;;4993031;28;20041;-72
2023/01/20 07:28:39;;;;;;;3.15;1.55;;;1.90;99.90;;;;;;4975934;28;20030;-72
2023/01/20 07:31:11;;;;;;;0.60;0.60;;;1.90;99.90;;;;;;4977499;28;21305;-70
2023/01/20 07:33:37;;;;;;;;;;;1.70;99.90;;;;;;4972495;28;20038;-69
2023/01/20 07:36:04;;;;;;;24.83;6.38;;;1.80;99.90;;;;;;4966885;28;19917;-71
2023/01/20 07:38:30;;;;;;;1.83;1.48;;;1.80;99.90;;;;;;4970229;28;20043;-69
2023/01/20 07:40:57;;;;;;;4.78;2.97;;;1.90;99.90;;;;;;4972693;28;20035;-70
2023/01/20 07:43:23;;;;;;;8.98;3.30;;;2.00;99.90;;;;;;4969609;28;20023;-70
2023/01/20 07:45:49;;;;;;;17.38;7.78;;;2.10;99.90;;;;;;4972521;28;20035;-67
2023/01/20 07:48:15;;;;;;;2.20;1.02;;;1.90;99.90;;;;;;4971795;28;20034;-68
2023/01/20 07:50:41;;;;;;;6.93;4.72;;;1.80;99.90;;;;;;4954410;28;20110;-67
2023/01/20 07:53:06;;;;;;;18.23;9.88;;;1.90;99.90;;;;;;4974747;28;20022;-67
2023/01/20 07:55:33;;;;;;;11.75;6.25;;;1.90;99.90;;;;;;4971350;28;20035;-67
2023/01/20 07:57:58;;;;;;;13.93;3.63;;;1.90;99.90;;;;;;4970774;28;20031;-67
2023/01/20 08:00:24;;;;;;;5.82;1.20;;;1.70;99.90;;;;;;4972850;28;20022;-67
2023/01/20 08:02:50;;;;;;;3.50;1.92;;;1.90;99.90;;;;;;4976690;28;20062;-69
2023/01/20 08:05:16;;;;;;;6.88;4.53;;;1.70;99.90;;;;;;4976477;28;20023;-69
2023/01/20 08:07:42;;;;;;;5.63;3.20;;;1.90;99.90;;;;;;4968831;28;20479;-67
2023/01/20 08:10:08;;;;;;;13.25;4.78;;;2.00;99.90;;;;;;4973066;28;20106;-71
2023/01/20 08:12:34;;;;;;;4.80;2.92;;;2.00;99.90;;;;;;4970224;28;20058;-66
2023/01/20 08:15:00;;;;;;;4.55;3.60;;;2.00;99.90;;;;;;4970570;28;20065;-73
2023/01/20 08:17:26;;;;;;;9.93;5.88;;;2.00;99.90;;;;;;4967683;28;20039;-69
2023/01/20 08:19:51;;;;;;;2.75;2.55;;;2.10;99.90;;;;;;4985072;28;20064;-68
2023/01/20 08:22:17;;;;;;;20.77;6.28;;;2.10;99.90;;;;;;4976039;28;20042;-70
2023/01/20 08:24:43;;;;;;;20.67;5.93;;;2.10;99.90;;;;;;4950978;28;20055;-68
2023/01/20 08:27:10;;;;;;;6.15;1.70;;;2.10;99.90;;;;;;4979133;28;20034;-70
2023/01/20 08:29:36;;;;;;;12.73;6.90;;;2.10;99.90;;;;;;4984265;28;20030;-71
2023/01/20 08:32:02;;;;;;;8.45;4.47;;;2.20;99.90;;;;;;4974073;28;20093;-71
2023/01/20 08:34:28;;;;;;;4.35;2.50;;;2.30;99.90;;;;;;4976314;28;20027;-75
2023/01/20 08:36:56;;;;;;;12.23;6.07;;;2.40;99.90;;;;;;4967870;28;20379;-68
2023/01/20 08:39:22;;;;;;;7.15;3.47;;;2.40;99.90;;;;;;4976169;28;20494;-67
2023/01/20 08:41:49;;;;;;;12.18;7.68;;;2.40;99.90;;;;;;4974146;28;20042;-73
2023/01/20 08:44:16;;;;;;;9.68;5.72;;;2.30;99.90;;;;;;4971238;28;20019;-68
2023/01/20 08:46:43;;;;;;;6.80;3.35;;;2.30;99.90;;;;;;4974938;28;20178;-67
2023/01/20 08:49:15;;;;;;;19.67;3.45;;;2.30;99.90;;;;;;4975219;28;20034;-72
2023/01/20 08:51:42;;;;;;;6.85;2.50;;;2.30;99.90;;;;;;4966112;28;20030;-71
2023/01/20 08:54:09;;;;;;;4.93;3.28;;;2.40;99.90;;;;;;4962400;28;20464;-71
2023/01/20 08:56:35;;;;;;;7.25;3.95;;;2.70;99.90;;;;;;4975901;28;20029;-69
2023/01/20 08:59:02;;;;;;;0.28;0.28;;;2.50;99.90;;;;;;4975398;28;20031;-67
2023/01/20 09:01:34;;;;;;;4.75;2.20;;;2.60;99.90;;;;;;4974442;28;20045;-69
2023/01/20 09:04:01;;;;;;;3.85;2.30;;;2.60;99.90;;;;;;4974985;28;20027;-69
2023/01/20 09:06:27;;;;;;;14.68;4.28;;;2.60;99.90;;;;;;4974836;28;20026;-70
2023/01/20 09:08:53;;;;;;;2.13;1.85;;;2.60;99.90;;;;;;4975558;28;20360;-73
2023/01/20 09:11:23;;;;;;;6.97;4.45;;;2.60;99.90;;;;;;4975376;28;20050;-67
2023/01/20 09:13:49;;;;;;;28.23;9.30;;;2.60;99.90;;;;;;4969355;28;20041;-65
2023/01/20 09:16:16;;;;;;;19.27;1.55;;;2.60;99.90;;;;;;4975678;28;20102;-70
2023/01/20 09:18:43;;;;;;;3.53;2.33;;;2.70;99.90;;;;;;4975581;28;20028;-73
2023/01/20 09:21:09;;;;;;;8.98;5.55;;;2.80;99.90;;;;;;4988929;28;20070;-73
2023/01/20 09:23:37;;;;;;;6.13;3.40;;;2.90;99.90;;;;;;4976511;28;20447;-70
2023/01/20 09:26:05;;;;;;;8.00;4.43;;;3.00;99.90;;;;;;4974015;28;20388;-70
2023/01/20 09:28:31;;;;;;;1.95;1.65;;;3.00;99.90;;;;;;4973577;28;20023;-71
2023/01/20 09:31:03;;;;;;;7.32;4.28;;;3.00;99.90;;;;;;4979058;28;20023;-70
2023/01/20 09:33:29;;;;;;;11.43;2.40;;;3.00;99.90;;;;;;4975713;28;20571;-72
2023/01/20 09:35:56;;;;;;;7.93;4.78;;;3.00;99.90;;;;;;4988882;28;20022;-68
2023/01/20 09:44:31;;;;;;;19.38;6.90;;;3.10;99.90;;;;;;4983527;28;20033;-72
2023/01/20 09:47:18;;;;;;;6.90;4.88;;;3.10;99.90;;;;;;4924346;28;20076;-73
2023/01/20 09:53:01;;;;;;;2.92;2.00;;;3.30;99.90;;;;;;4983563;28;20037;-69
2023/01/20 09:55:53;;;;;;;6.35;4.28;;;3.40;99.90;;;;;;4987794;28;20085;-70
2023/01/20 09:58:31;;;;;;;6.50;3.92;;;3.40;99.90;;;;;;4953985;28;20038;-70
2023/01/20 10:01:29;;;;;;;9.45;3.38;;;3.40;99.90;;;;;;4982146;28;20365;-70
2023/01/20 10:04:12;;;;;;;12.60;4.88;;;3.50;99.90;;;;;;4973570;28;20031;-70
2023/01/20 10:06:44;;;;;;;11.23;4.32;;;3.50;99.90;;;;;;4966283;28;20027;-69
2023/01/20 10:09:20;;;;;;;8.48;3.65;;;3.50;99.90;;;;;;4967610;28;20033;-71
2023/01/20 10:11:47;;;;;;;11.20;3.88;;;3.50;99.90;;;;;;4964104;28;20456;-68
2023/01/20 10:14:17;;;;;;;6.22;4.03;;;3.50;99.90;;;;;;4979200;28;20089;-68
2023/01/20 10:16:55;;;;;;;4.15;1.75;;;3.60;99.90;;;;;;4985831;28;20049;-69
2023/01/20 10:19:32;;;;;;;4.00;2.50;;;3.60;99.90;;;;;;4975747;28;20019;-68
2023/01/20 10:22:25;;;;;;;14.27;5.72;;;3.60;99.90;;;;;;4986274;28;20038;-68
2023/01/20 10:25:19;;;;;;;17.65;7.95;;;3.60;99.90;;;;;;4993228;28;20435;-71
2023/01/20 10:28:10;;;;;;;16.73;3.90;;;3.60;99.90;;;;;;4967440;28;20062;-72
2023/01/20 10:30:37;;;;;;;3.97;2.35;;;3.70;99.90;;;;;;4964808;28;20031;-74
2023/01/20 10:33:10;;;;;;;20.45;6.80;;;3.80;99.90;;;;;;4988913;28;20105;-73
2023/01/20 10:35:50;;;;;;;16.02;5.93;;;3.80;99.90;;;;;;4987434;28;20487;-68
2023/01/20 10:38:51;;;;;;;3.90;1.83;;;3.90;99.90;;;;;;5076607;27;20406;-73
2023/01/20 10:41:27;;;;;;;22.08;7.97;;;4.00;99.90;;;;;;5052986;28;20530;-73
2023/01/20 10:43:54;;;;;;;10.82;5.13;;;3.90;99.90;;;;;;5067817;28;20031;-72
2023/01/20 10:46:39;;;;;;;9.82;3.30;;;3.90;99.90;;;;;;5070185;28;20025;-73
2023/01/20 10:49:33;;;;;;;4.00;1.88;;;3.90;99.90;;;;;;5081251;28;20125;-68
2023/01/20 10:52:09;;;;;;;1.15;1.08;;;4.00;99.90;;;;;;5066238;28;20078;-73
2023/01/20 10:54:53;;;;;;;0.38;0.38;;;4.10;99.90;;;;;;5074841;28;20029;-68
2023/01/20 10:57:19;;;;;;;1.63;1.25;;;4.20;99.90;;;;;;5070612;28;20076;-70
2023/01/20 11:00:14;;;;;;;0.32;0.32;;;4.10;99.90;;;;;;5072562;28;20364;-68
2023/01/20 11:02:40;;;;;;;0.00;0.00;;;4.20;99.90;;;;;;5081224;28;20036;-69
2023/01/20 11:05:09;;;;;;;0.95;0.95;;;3.90;99.90;;;;;;5075807;28;20020;-68
2023/01/20 11:07:35;;;;;;;0.30;0.30;;;4.00;99.90;;;;;;5075523;28;20440;-69
2023/01/20 11:10:25;;;;;;;0.20;0.20;;;4.30;99.90;;;;;;5074473;28;20044;-69
2023/01/20 11:12:56;;;;;;;0.10;0.10;;;4.40;99.90;;;;;;5082630;28;20081;-70
2023/01/20 11:15:26;;;;;;;2.30;0.95;;;4.50;99.90;;;;;;5076141;28;20060;-69
2023/01/20 11:18:31;;;;;;;0.47;0.47;;;4.40;99.90;;;;;;5077124;28;20060;-69
2023/01/20 11:21:02;;;;;;;0.65;0.65;;;4.20;99.90;;;;;;5071210;28;20090;-68
2023/01/20 11:23:37;;;;;;;0.30;0.30;;;4.10;99.90;;;;;;5069281;28;20102;-69
2023/01/20 11:26:23;;;;;;;0.10;0.10;;;4.20;99.90;;;;;;5069914;28;20025;-68
2023/01/20 11:28:58;;;;;;;0.10;0.10;;;4.50;99.90;;;;;;5079298;28;20064;-70
2023/01/20 11:31:43;;;;;;;6.15;5.68;;;4.60;99.90;;;;;;5072451;28;20384;-67
2023/01/20 11:34:23;;;;;;;0.00;0.00;;;4.50;99.90;;;;;;5067139;28;20523;-68
2023/01/20 11:37:09;;;;;;;0.20;0.20;;;4.50;99.90;;;;;;5062664;28;20404;-68
2023/01/20 11:39:42;;;;;;;0.05;0.05;;;4.50;99.90;;;;;;5068228;28;20021;-68
2023/01/20 11:42:28;;;;;;;0.10;0.10;;;4.60;99.90;;;;;;5079260;28;20074;-68
2023/01/20 11:45:03;;;;;;;0.10;0.10;;;4.60;99.90;;;;;;5071377;28;20064;-68
2023/01/20 11:47:35;;;;;;;0.10;0.10;;;4.90;99.90;;;;;;5068980;28;20506;-69
2023/01/20 11:50:04;;;;;;;0.17;0.17;;;4.60;99.90;;;;;;5069715;28;20028;-70
2023/01/20 11:52:35;;;;;;;0.10;0.10;;;4.60;99.90;;;;;;5062338;28;20025;-69
2023/01/20 11:55:22;;;;;;;0.10;0.10;;;4.90;99.90;;;;;;5059957;28;20897;-69
2023/01/20 11:57:56;;;;;;;0.00;0.00;;;4.90;99.90;;;;;;5047764;28;20064;-69
2023/01/20 12:01:04;;;;;;;0.90;0.90;;;5.00;99.90;;;;;;5041962;28;20025;-72
2023/01/20 12:04:01;;;;;;;0.13;0.13;;;5.10;99.90;;;;;;5063817;28;20064;-72
2023/01/20 12:06:32;;;;;;;0.38;0.38;;;4.90;99.90;;;;;;5058227;28;20029;-70
2023/01/20 12:09:22;;;;;;;0.53;0.53;;;4.80;99.90;;;;;;5056080;28;20061;-70
2023/01/20 12:11:47;;;;;;;0.70;0.50;;;4.70;99.90;;;;;;5044951;28;20120;-69
2023/01/20 12:14:19;;;;;;;0.32;0.32;;;5.10;99.90;;;;;;5068638;28;20095;-69
2023/01/20 12:17:05;;;;;;;0.22;0.22;;;5.20;99.90;;;;;;5060406;28;20643;-69
2023/01/20 12:20:04;;;;;;;0.98;0.80;;;5.60;99.90;;;;;;5059477;28;20061;-69
2023/01/20 12:22:57;;;;;;;0.10;0.10;;;5.80;99.90;;;;;;5057053;28;20393;-69
2023/01/20 12:25:28;;;;;;;0.65;0.47;;;5.80;99.90;;;;;;5054174;28;20025;-69
2023/01/20 12:28:11;;;;;;;0.03;0.03;;;6.00;99.90;;;;;;5067947;28;20032;-69
2023/01/20 12:30:42;;;;;;;1.95;0.60;;;6.10;99.90;;;;;;5042823;28;20082;-69
2023/01/20 12:33:19;;;;;;;0.10;0.10;;;6.30;99.90;;;;;;5058308;28;20040;-69
2023/01/20 12:36:02;;;;;;;0.65;0.65;;;5.70;99.90;;;;;;5055170;28;20468;-69
2023/01/20 12:38:32;;;;;;;0.45;0.45;;;5.60;99.90;;;;;;5060647;28;20063;-69
2023/01/20 12:41:04;;;;;;;0.20;0.20;;;5.30;99.90;;;;;;5053133;28;20071;-69
2023/01/20 12:43:53;;;;;;;1.02;0.43;;;5.70;99.90;;;;;;5054289;28;20119;-69
2023/01/20 12:46:51;;;;;;;0.75;0.75;;;5.70;99.90;;;;;;5039013;28;20037;-69
2023/01/20 12:49:25;;;;;;;0.20;0.20;;;5.40;99.90;;;;;;5052680;28;20040;-70
2023/01/20 12:52:00;;;;;;;0.28;0.28;;;5.40;99.90;;;;;;5054653;28;20111;-71
2023/01/20 12:54:25;;;;;;;1.98;1.13;;;5.40;99.90;;;;;;5053985;28;20025;-72
2023/01/20 12:57:34;;;;;;;0.28;0.28;;;5.00;99.90;;;;;;5053917;28;20032;-73
2023/01/20 13:00:30;;;;;;;0.20;0.20;;;5.00;99.90;;;;;;5051601;28;20099;-73
2023/01/20 13:03:20;;;;;;;2.03;0.95;;;5.10;99.90;;;;;;5053791;28;20021;-74
2023/01/20 13:06:10;;;;;;;1.02;0.50;;;5.00;99.90;;;;;;5054133;28;20029;-71
2023/01/20 13:08:50;;;;;;;0.10;0.10;;;5.10;99.90;;;;;;5042543;28;20362;-72
2023/01/20 13:11:47;;;;;;;0.52;0.52;;;5.20;99.90;;;;;;5053487;28;20086;-71
2023/01/20 13:14:23;;;;;;;0.00;0.00;;;5.40;99.90;;;;;;5052843;28;20064;-71
2023/01/20 13:16:57;;;;;;;0.43;0.43;;;5.40;99.90;;;;;;5053742;28;20128;-73
2023/01/20 13:19:37;;;;;;;3.10;1.17;;;5.30;99.90;;;;;;5053522;28;20377;-71
2023/01/20 13:22:13;;;;;;;0.85;0.77;;;5.40;99.90;;;;;;5053434;28;20025;-74